< < Back
Terminal Aerodrome Forecast


Current Version              Previous Versions:   1  2  3  4  5  6  7  8  9  

Terminal Aerodrome Forecast

154
FTUS42 KFFC 281130
TAFAHN
TAF
KAHN 281130Z 2812/2912 31005KT P6SM SKC
     FM282100 23004KT P6SM SKC
     FM290000 00000KT P6SM SKC=

Latest METAR

038
SAUS70 KWBC 282100
MTRAHN
METAR KAHN 282051Z 26004KT 10SM CLR 09/M07 A3029 RMK AO2 SLP263
T00941067 56014


USA.gov is the U.S. government's official web portal to all federal, state and local government web resources and services.